• Join FlightAware (Why Join?)
  • Login
  • US Flag 
07:34PM EDT


 

Airport Tracker/Info


-or-


 

Live Flight TrackerFlight Track Log ✈ ENY3496 ✈ 31-Aug-2014 ✈ KMIA - MYAM / MHH

Flight Track Log - Related Links

Times and Time Zones

All times are in EDT time to prevent confusion due to time zone crossing. See the ENY3496 flight status page for this flight to view local times or setup timezone preferences in your user account.

Time Position Orientation Groundspeed Altitude Reporting Facility
EDT Latitude Longitude Course Direction KTS MPH feet Rate Location/Type
10:02AM 25.8014 -80.2700 86° East 151 174 1,100  Level Miami Center
10:03AM 25.8042 -80.2239 86° East 204 235 3,200 2,520 Climbing Miami Center
10:04AM 25.8083 -80.1594 86° East 229 264 5,700 2,520 Climbing Miami Center
10:05AM 25.8089 -80.0808 90° East 262 302 8,300 2,760 Climbing Miami Center
10:06AM 25.8389 -80.0019 67° East 265 305 11,400 2,400 Climbing Miami Center
10:07AM 25.8750 -79.9539 50° Northeast 264 304 13,000 1,440 Climbing Miami Center
10:08AM 25.9289 -79.8794 51° Northeast 316 364 14,200 1,320 Climbing Miami Center
10:09AM 25.9867 -79.7953 53° Northeast 338 389 15,800 840 Climbing Miami Center
10:10AM 26.0483 -79.7053 53° Northeast 365 420 16,000 900 Climbing Miami Center
10:11AM 26.1147 -79.5822 59° Northeast 386 444 17,700 1,560 Climbing Miami Center
10:12AM 26.1336 -79.4711 79° East 367 422 19,300 1,560 Climbing Miami Center
10:13AM 26.1506 -79.3592 80° East 368 423 21,000 1,620 Climbing Miami Center
10:14AM 26.1692 -79.2467 80° East 368 423 22,700 960 Climbing Miami Center
10:15AM 26.1886 -79.1306 79° East 382 440 23,000 120 Climbing Miami Center
10:16AM 26.2092 -79.0039 80° East 412 474 23,000  Level Miami Center
10:17AM 26.2303 -78.8689 80° East 422 486 23,000  Level Miami Center
10:18AM 26.2514 -78.7425 79° East 421 484 23,000  Level Miami Center
10:19AM 26.2758 -78.5914 80° East 419 482 23,000  Level Miami Center
10:20AM 26.2961 -78.4650 80° East 420 483 23,000 -360 Level Miami Center
10:21AM 26.3169 -78.3369 80° East 421 484 22,300 -1,500 Descending Miami Center
10:22AM 26.3369 -78.2111 80° East 420 483 20,000 -2,220 Descending Miami Center
10:23AM 26.3567 -78.0894 80° East 407 468 17,800 -2,280 Descending Miami Center
10:24AM 26.3750 -77.9681 80° East 400 460 15,400 -2,640 Descending Miami Center
10:25AM 26.3972 -77.8272 80° East 391 450 12,500 -2,580 Descending Miami Center
10:26AM 26.4139 -77.7217 80° East 353 406 10,100 -1,500 Descending Miami Center
10:27AM 26.4269 -77.6331 81° East 299 344 9,400 -1,080 Descending Miami Center
10:28AM 26.4389 -77.5528 81° East 263 303 8,000 -1,200 Descending Miami Center
10:29AM 26.4511 -77.4750 80° East 262 302 7,000 -1,020 Descending Miami Center